Time;durP1;ratioP1;P1;durP2;ratioP2;P2;SDS_P1;SDS_P2;PMS_P1;PMS_P2;Temp;Humidity;BMP_temperature;BMP_pressure;BME280_temperature;BME280_humidity;BME280_pressure;Samples;Min_cycle;Max_cycle;Signal;HPM_P1;HPM_P2
2024/04/03 00:01:51;;;;;;;4.13;1.02;;;;;;;;;;4990509;28;20060;-68
2024/04/03 00:04:17;;;;;;;2.83;0.70;;;;;;;;;;4994143;28;20053;-68
2024/04/03 00:06:43;;;;;;;2.70;0.75;;;;;;;;;;4995946;28;20050;-67
2024/04/03 00:09:09;;;;;;;2.83;0.90;;;;;;;;;;4995298;28;20034;-67
2024/04/03 00:11:35;;;;;;;1.40;1.08;;;;;;;;;;4990162;28;20057;-68
2024/04/03 00:14:01;;;;;;;2.67;1.10;;;;;;;;;;4989914;28;20046;-67
2024/04/03 00:16:27;;;;;;;1.83;0.73;;;;;;;;;;5006239;28;20053;-67
2024/04/03 00:18:53;;;;;;;6.47;0.80;;;;;;;;;;4987192;28;20050;-67
2024/04/03 00:21:19;;;;;;;5.03;1.15;;;;;;;;;;4991726;28;20414;-67
2024/04/03 00:23:46;;;;;;;0.90;0.60;;;;;;;;;;4990004;28;20046;-69
2024/04/03 00:26:12;;;;;;;2.83;0.90;;;;;;;;;;4990204;28;20046;-69
2024/04/03 00:28:38;;;;;;;3.38;0.90;;;;;;;;;;4988979;28;20140;-68
2024/04/03 00:31:04;;;;;;;3.00;0.85;;;;;;;;;;4991610;28;20069;-68
2024/04/03 00:33:30;;;;;;;3.47;0.80;;;;;;;;;;4991104;28;20050;-68
2024/04/03 00:35:57;;;;;;;4.78;1.10;;;;;;;;;;4990272;28;20042;-68
2024/04/03 00:38:24;;;;;;;2.90;0.82;;;;;;;;;;4989145;28;20053;-67
2024/04/03 00:41:08;;;;;;;2.15;0.95;;;;;;;;;;4988503;28;20069;-68
2024/04/03 00:43:34;;;;;;;2.03;0.75;;;;;;;;;;4968094;28;20058;-68
2024/04/03 00:46:04;;;;;;;3.53;1.00;;;;;;;;;;4989943;28;20042;-69
2024/04/03 00:48:30;;;;;;;1.70;0.90;;;;;;;;;;4986323;28;20038;-67
2024/04/03 00:50:59;;;;;;;2.60;0.80;;;;;;;;;;4989488;28;20391;-68
2024/04/03 00:53:26;;;;;;;2.15;0.90;;;;;;;;;;4988621;28;20046;-68
2024/04/03 00:55:52;;;;;;;4.18;0.80;;;;;;;;;;4991920;28;20066;-68
2024/04/03 00:58:19;;;;;;;2.85;0.95;;;;;;;;;;4989064;28;20062;-67
2024/04/03 01:00:45;;;;;;;3.55;1.05;;;;;;;;;;4988677;28;20061;-67
2024/04/03 01:03:11;;;;;;;3.38;0.80;;;;;;;;;;4990239;28;20053;-68
2024/04/03 01:05:37;;;;;;;2.10;0.90;;;;;;;;;;4989884;28;20502;-68
2024/04/03 01:08:04;;;;;;;3.08;0.85;;;;;;;;;;4988842;28;20037;-68
2024/04/03 01:10:30;;;;;;;1.63;0.93;;;;;;;;;;4989559;28;20038;-68
2024/04/03 01:12:58;;;;;;;1.77;0.98;;;;;;;;;;4988015;28;20057;-68
2024/04/03 01:15:24;;;;;;;4.05;1.17;;;;;;;;;;4987873;28;20041;-68
2024/04/03 01:17:50;;;;;;;3.65;0.98;;;;;;;;;;4989494;28;20046;-68
2024/04/03 01:20:16;;;;;;;1.35;0.95;;;;;;;;;;4988220;28;20513;-68
2024/04/03 01:22:42;;;;;;;3.85;1.83;;;;;;;;;;4986805;28;20046;-68
2024/04/03 01:25:09;;;;;;;4.15;1.20;;;;;;;;;;4989897;28;20046;-68
2024/04/03 01:27:35;;;;;;;2.78;1.38;;;;;;;;;;4984511;28;20034;-68
2024/04/03 01:30:01;;;;;;;2.05;0.95;;;;;;;;;;4989145;28;20061;-69
2024/04/03 01:32:28;;;;;;;3.28;1.20;;;;;;;;;;4986035;28;20057;-68
2024/04/03 01:34:54;;;;;;;4.25;1.30;;;;;;;;;;4986744;28;20050;-68
2024/04/03 01:37:20;;;;;;;3.75;1.60;;;;;;;;;;4988631;28;20069;-68
2024/04/03 01:39:47;;;;;;;3.10;1.20;;;;;;;;;;4986300;28;20528;-68
2024/04/03 01:42:13;;;;;;;2.17;1.00;;;;;;;;;;4987029;28;20544;-68
2024/04/03 01:44:39;;;;;;;3.63;1.00;;;;;;;;;;4986149;28;20434;-68
2024/04/03 01:47:05;;;;;;;1.92;0.80;;;;;;;;;;4988638;28;20049;-68
2024/04/03 01:49:32;;;;;;;2.80;0.95;;;;;;;;;;4988867;28;20528;-68
2024/04/03 01:51:58;;;;;;;1.95;0.80;;;;;;;;;;4985132;28;20042;-69
2024/04/03 01:54:26;;;;;;;2.35;1.17;;;;;;;;;;4986246;28;20034;-68
2024/04/03 01:56:54;;;;;;;2.85;1.00;;;;;;;;;;4990786;28;20478;-68
2024/04/03 01:59:21;;;;;;;3.17;0.85;;;;;;;;;;4992258;28;20045;-68
2024/04/03 02:01:47;;;;;;;3.65;0.93;;;;;;;;;;4971984;28;20065;-68
2024/04/03 02:04:14;;;;;;;2.28;1.00;;;;;;;;;;4991914;28;20038;-69
2024/04/03 02:06:40;;;;;;;2.78;0.95;;;;;;;;;;4987789;28;20034;-68
2024/04/03 02:09:07;;;;;;;1.58;1.15;;;;;;;;;;4988900;28;20031;-68
2024/04/03 02:11:33;;;;;;;4.15;0.90;;;;;;;;;;4987357;28;20046;-67
2024/04/03 02:13:59;;;;;;;1.25;0.70;;;;;;;;;;4987754;28;20058;-68
2024/04/03 02:16:27;;;;;;;5.65;2.00;;;;;;;;;;4992955;28;20506;-68
2024/04/03 02:18:53;;;;;;;1.80;1.33;;;;;;;;;;4986327;28;22026;-68
2024/04/03 02:21:19;;;;;;;4.68;1.73;;;;;;;;;;4986260;28;20080;-68
2024/04/03 02:23:45;;;;;;;2.67;1.10;;;;;;;;;;4988202;28;20058;-68
2024/04/03 02:26:11;;;;;;;0.88;0.80;;;;;;;;;;4989516;28;20057;-68
2024/04/03 02:28:37;;;;;;;1.85;1.20;;;;;;;;;;4985880;28;20374;-68
2024/04/03 02:31:03;;;;;;;4.10;1.00;;;;;;;;;;4988532;28;20045;-68
2024/04/03 02:33:29;;;;;;;3.22;0.93;;;;;;;;;;4987503;28;20062;-68
2024/04/03 02:35:55;;;;;;;6.00;1.65;;;;;;;;;;4987444;28;20478;-68
2024/04/03 02:38:22;;;;;;;1.42;0.90;;;;;;;;;;4988259;28;20065;-69
2024/04/03 02:40:48;;;;;;;1.20;0.85;;;;;;;;;;4986255;28;20053;-68
2024/04/03 02:43:14;;;;;;;1.52;0.80;;;;;;;;;;4986906;28;20837;-68
2024/04/03 02:45:40;;;;;;;1.90;0.90;;;;;;;;;;4989159;28;20034;-69
2024/04/03 02:48:06;;;;;;;2.08;0.70;;;;;;;;;;4989771;28;21298;-69
2024/04/03 02:50:32;;;;;;;2.53;0.77;;;;;;;;;;4988230;28;20050;-70
2024/04/03 02:52:58;;;;;;;3.20;0.98;;;;;;;;;;4994499;28;20042;-68
2024/04/03 02:55:24;;;;;;;1.38;0.80;;;;;;;;;;4990633;28;20053;-68
2024/04/03 02:57:51;;;;;;;3.75;1.10;;;;;;;;;;4992225;28;20054;-68
2024/04/03 03:00:17;;;;;;;3.65;1.45;;;;;;;;;;4990565;28;20046;-68
2024/04/03 03:02:43;;;;;;;3.50;1.40;;;;;;;;;;4991098;28;20510;-68
2024/04/03 03:05:09;;;;;;;5.25;1.58;;;;;;;;;;4996017;28;20421;-68
2024/04/03 03:07:35;;;;;;;2.63;1.30;;;;;;;;;;4996907;28;20038;-68
2024/04/03 03:10:01;;;;;;;3.13;1.30;;;;;;;;;;5006425;28;20034;-69
2024/04/03 03:12:27;;;;;;;3.15;1.20;;;;;;;;;;4987744;28;20038;-68
2024/04/03 03:14:53;;;;;;;2.08;1.27;;;;;;;;;;4994468;28;20054;-68
2024/04/03 03:17:19;;;;;;;3.25;0.80;;;;;;;;;;4998211;28;20034;-67
2024/04/03 03:19:45;;;;;;;0.98;0.80;;;;;;;;;;4990588;28;20065;-68
2024/04/03 03:22:11;;;;;;;1.20;0.77;;;;;;;;;;4988542;28;20475;-69
2024/04/03 03:24:37;;;;;;;2.90;1.52;;;;;;;;;;4991534;28;20405;-68
2024/04/03 03:27:03;;;;;;;1.00;0.73;;;;;;;;;;4992219;28;20498;-68
2024/04/03 03:29:29;;;;;;;2.75;0.75;;;;;;;;;;5008320;28;20042;-68
2024/04/03 03:31:55;;;;;;;5.30;1.40;;;;;;;;;;4988735;28;20041;-67
2024/04/03 03:34:22;;;;;;;3.75;0.82;;;;;;;;;;4990305;28;20076;-69
2024/04/03 03:36:48;;;;;;;2.38;0.80;;;;;;;;;;4992847;28;20034;-68
2024/04/03 03:39:14;;;;;;;2.42;0.80;;;;;;;;;;4991309;28;20428;-68
2024/04/03 03:41:40;;;;;;;1.65;0.88;;;;;;;;;;4990685;28;20058;-68
2024/04/03 03:44:06;;;;;;;3.05;0.80;;;;;;;;;;4991006;28;20053;-67
2024/04/03 03:46:32;;;;;;;1.55;0.80;;;;;;;;;;4994510;28;20490;-68
2024/04/03 03:54:29;;;;;;;3.30;0.90;;;;;;;;;;4991162;28;20102;-68
2024/04/03 03:56:55;;;;;;;1.13;0.88;;;;;;;;;;4991389;28;20568;-67
2024/04/03 03:59:21;;;;;;;5.28;1.80;;;;;;;;;;5004394;28;20410;-67
2024/04/03 04:01:48;;;;;;;4.30;1.60;;;;;;;;;;4989623;28;20049;-68
2024/04/03 04:04:14;;;;;;;3.20;1.15;;;;;;;;;;4988093;28;20038;-68
2024/04/03 04:06:40;;;;;;;1.88;0.85;;;;;;;;;;4996263;28;20042;-67
2024/04/03 04:09:06;;;;;;;3.33;0.90;;;;;;;;;;4992100;28;20482;-68
2024/04/03 04:11:32;;;;;;;2.13;0.80;;;;;;;;;;4992099;28;20050;-68
2024/04/03 04:13:58;;;;;;;1.50;0.70;;;;;;;;;;4990496;28;20847;-68
2024/04/03 04:16:24;;;;;;;1.55;0.70;;;;;;;;;;4993914;28;20114;-68
2024/04/03 04:18:50;;;;;;;3.95;1.05;;;;;;;;;;4989922;28;20529;-69
2024/04/03 04:21:16;;;;;;;1.02;0.80;;;;;;;;;;4991662;28;20145;-68
2024/04/03 04:23:42;;;;;;;1.20;0.63;;;;;;;;;;4990464;28;20038;-66
2024/04/03 04:26:08;;;;;;;1.48;0.60;;;;;;;;;;4990672;28;20053;-67
2024/04/03 04:28:34;;;;;;;4.68;0.90;;;;;;;;;;4990715;28;20038;-68
2024/04/03 04:31:02;;;;;;;1.50;0.60;;;;;;;;;;4989695;28;20038;-68
2024/04/03 04:33:30;;;;;;;5.10;1.50;;;;;;;;;;5002356;28;20038;-68
2024/04/03 04:35:57;;;;;;;5.15;1.65;;;;;;;;;;4990042;28;20046;-68
2024/04/03 04:38:24;;;;;;;1.90;0.70;;;;;;;;;;4988802;28;20034;-68
2024/04/03 04:41:00;;;;;;;0.88;0.50;;;;;;;;;;4989995;28;20048;-66
2024/04/03 04:43:28;;;;;;;1.02;0.60;;;;;;;;;;4990009;28;20038;-68
2024/04/03 04:46:00;;;;;;;2.42;0.60;;;;;;;;;;4991574;28;20029;-69
2024/04/03 04:48:28;;;;;;;2.70;0.98;;;;;;;;;;4990497;28;20034;-69
2024/04/03 04:50:56;;;;;;;1.50;0.50;;;;;;;;;;4973200;28;20035;-67
2024/04/03 04:53:23;;;;;;;1.10;0.82;;;;;;;;;;4988205;28;20057;-67
2024/04/03 04:55:52;;;;;;;1.85;0.60;;;;;;;;;;4990491;28;20042;-67
2024/04/03 04:58:19;;;;;;;1.90;0.65;;;;;;;;;;4987833;28;20031;-66
2024/04/03 05:00:45;;;;;;;3.20;0.70;;;;;;;;;;4986890;28;20069;-65
2024/04/03 05:03:11;;;;;;;3.33;0.60;;;;;;;;;;4987258;28;20034;-65
2024/04/03 05:05:37;;;;;;;2.38;0.57;;;;;;;;;;4989785;28;20391;-65
2024/04/03 05:08:03;;;;;;;2.17;0.55;;;;;;;;;;4988214;28;20399;-65
2024/04/03 05:10:30;;;;;;;1.08;0.60;;;;;;;;;;4995122;28;20050;-65
2024/04/03 05:12:56;;;;;;;0.82;0.65;;;;;;;;;;4989367;28;20042;-66
2024/04/03 05:15:22;;;;;;;1.95;0.73;;;;;;;;;;4987176;28;20042;-68
2024/04/03 05:17:50;;;;;;;1.33;0.70;;;;;;;;;;4991173;28;20058;-65
2024/04/03 05:20:16;;;;;;;0.50;0.47;;;;;;;;;;4990789;28;20414;-65
2024/04/03 05:22:42;;;;;;;1.40;0.70;;;;;;;;;;4990120;28;20057;-65
2024/04/03 05:25:08;;;;;;;1.45;0.55;;;;;;;;;;4993311;28;20053;-65
2024/04/03 05:27:34;;;;;;;0.82;0.52;;;;;;;;;;4990765;28;20149;-66
2024/04/03 05:30:00;;;;;;;0.55;0.50;;;;;;;;;;4987139;28;20030;-65
2024/04/03 05:32:26;;;;;;;2.38;0.60;;;;;;;;;;4989838;28;20385;-65
2024/04/03 05:34:52;;;;;;;1.75;0.68;;;;;;;;;;4988783;28;20050;-65
2024/04/03 05:37:18;;;;;;;1.58;0.73;;;;;;;;;;4990018;28;20038;-64
2024/04/03 05:39:44;;;;;;;1.23;0.77;;;;;;;;;;4990956;28;20418;-65
2024/04/03 05:42:10;;;;;;;2.30;0.70;;;;;;;;;;5006607;28;20045;-65
2024/04/03 05:44:36;;;;;;;3.15;0.70;;;;;;;;;;4987788;28;20057;-65
2024/04/03 05:47:03;;;;;;;1.45;0.73;;;;;;;;;;4989834;28;20046;-68
2024/04/03 05:49:29;;;;;;;1.98;0.70;;;;;;;;;;4992564;28;20034;-65
2024/04/03 05:51:55;;;;;;;2.47;0.65;;;;;;;;;;4992349;28;20413;-63
2024/04/03 05:54:21;;;;;;;1.13;0.60;;;;;;;;;;4990201;28;20578;-65
2024/04/03 05:56:47;;;;;;;1.23;0.70;;;;;;;;;;4987769;28;20050;-64
2024/04/03 05:59:13;;;;;;;1.48;0.50;;;;;;;;;;4990097;28;20042;-63
2024/04/03 06:01:41;;;;;;;3.13;0.80;;;;;;;;;;4988324;28;20406;-65
2024/04/03 06:04:07;;;;;;;0.80;0.50;;;;;;;;;;4986854;28;21295;-66
2024/04/03 06:06:33;;;;;;;4.80;0.85;;;;;;;;;;4989722;28;20037;-65
2024/04/03 06:08:59;;;;;;;3.22;0.88;;;;;;;;;;4989096;28;20049;-65
2024/04/03 06:11:25;;;;;;;1.15;0.70;;;;;;;;;;4989061;28;20046;-65
2024/04/03 06:13:51;;;;;;;0.60;0.60;;;;;;;;;;4989231;28;20046;-65
2024/04/03 06:16:18;;;;;;;2.00;0.80;;;;;;;;;;4989702;28;20160;-65
2024/04/03 06:18:44;;;;;;;4.60;1.23;;;;;;;;;;4990604;28;20158;-65
2024/04/03 06:21:12;;;;;;;7.25;1.27;;;;;;;;;;4987905;28;20061;-65
2024/04/03 06:23:38;;;;;;;1.13;0.60;;;;;;;;;;4991307;28;20050;-65
2024/04/03 06:26:04;;;;;;;4.63;0.80;;;;;;;;;;4992912;28;20052;-64
2024/04/03 06:28:31;;;;;;;1.00;0.60;;;;;;;;;;4996550;28;20046;-64
2024/04/03 06:30:57;;;;;;;2.10;0.70;;;;;;;;;;4995392;28;20057;-64
2024/04/03 06:33:23;;;;;;;2.95;1.02;;;;;;;;;;4995829;28;20041;-65
2024/04/03 06:35:49;;;;;;;2.00;0.82;;;;;;;;;;4998457;28;20042;-65
2024/04/03 06:38:15;;;;;;;2.50;0.98;;;;;;;;;;4997704;28;20037;-64
2024/04/03 06:40:41;;;;;;;2.47;1.13;;;;;;;;;;4996576;28;20075;-64
2024/04/03 06:43:08;;;;;;;3.20;0.95;;;;;;;;;;4996597;28;20058;-65
2024/04/03 06:45:34;;;;;;;1.63;0.60;;;;;;;;;;4998233;28;20050;-66
2024/04/03 06:48:00;;;;;;;0.80;0.70;;;;;;;;;;4998104;28;20052;-65
2024/04/03 06:50:26;;;;;;;1.30;0.88;;;;;;;;;;4989032;28;20069;-66
2024/04/03 06:52:53;;;;;;;1.92;0.85;;;;;;;;;;4994215;28;20144;-65
2024/04/03 06:55:19;;;;;;;2.35;0.88;;;;;;;;;;4995557;28;20033;-65
2024/04/03 06:57:45;;;;;;;3.08;1.00;;;;;;;;;;5001397;28;20060;-65
2024/04/03 07:00:11;;;;;;;2.08;1.30;;;;;;;;;;4994912;28;20053;-65
2024/04/03 07:02:37;;;;;;;2.15;1.08;;;;;;;;;;4996157;28;20041;-65
2024/04/03 07:05:04;;;;;;;1.67;1.00;;;;;;;;;;4992735;28;20494;-65
2024/04/03 07:07:30;;;;;;;1.65;0.80;;;;;;;;;;4994138;28;20030;-65
2024/04/03 07:09:58;;;;;;;3.38;1.23;;;;;;;;;;4988617;28;20038;-65
2024/04/03 07:12:24;;;;;;;1.60;0.70;;;;;;;;;;4990783;28;20042;-65
2024/04/03 07:14:50;;;;;;;3.20;0.82;;;;;;;;;;4993641;28;20034;-65
2024/04/03 07:17:16;;;;;;;3.85;2.13;;;;;;;;;;4994985;28;20050;-65
2024/04/03 07:19:43;;;;;;;1.17;0.82;;;;;;;;;;4995091;28;20389;-65
2024/04/03 07:22:09;;;;;;;2.30;0.80;;;;;;;;;;4993660;28;20094;-66
2024/04/03 07:24:35;;;;;;;0.80;0.70;;;;;;;;;;4992023;28;20057;-64
2024/04/03 07:27:01;;;;;;;5.15;2.05;;;;;;;;;;4995633;28;20421;-65
2024/04/03 07:29:27;;;;;;;5.28;2.80;;;;;;;;;;4992840;28;20050;-66
2024/04/03 07:31:53;;;;;;;2.95;1.90;;;;;;;;;;4990345;28;20050;-66
2024/04/03 07:34:19;;;;;;;3.03;1.70;;;;;;;;;;4992502;28;20382;-66
2024/04/03 07:36:46;;;;;;;6.40;1.60;;;;;;;;;;4992667;28;20065;-65
2024/04/03 07:39:12;;;;;;;2.03;1.20;;;;;;;;;;4986502;28;20042;-66
2024/04/03 07:41:39;;;;;;;4.03;1.85;;;;;;;;;;4979237;28;20046;-65
2024/04/03 07:44:05;;;;;;;2.58;1.75;;;;;;;;;;5002275;28;20057;-65
2024/04/03 07:46:31;;;;;;;5.57;1.40;;;;;;;;;;4990389;28;20058;-65
2024/04/03 07:48:58;;;;;;;2.65;1.48;;;;;;;;;;4987852;28;20075;-65
2024/04/03 07:51:24;;;;;;;2.88;1.48;;;;;;;;;;4984798;28;20038;-65
2024/04/03 07:53:50;;;;;;;2.92;1.52;;;;;;;;;;4992025;28;20046;-65
2024/04/03 07:56:16;;;;;;;2.15;1.50;;;;;;;;;;4988070;28;20548;-65
2024/04/03 07:58:42;;;;;;;4.53;1.73;;;;;;;;;;4986272;28;20045;-65
2024/04/03 08:01:09;;;;;;;2.22;1.20;;;;;;;;;;4987821;28;20050;-66
2024/04/03 08:03:37;;;;;;;2.20;1.15;;;;;;;;;;4990220;28;20061;-66
2024/04/03 08:06:05;;;;;;;2.70;1.30;;;;;;;;;;4990486;28;20046;-66
2024/04/03 08:08:32;;;;;;;4.35;1.20;;;;;;;;;;4985904;28;20034;-64
2024/04/03 08:11:01;;;;;;;3.78;1.10;;;;;;;;;;4983952;28;20034;-65
2024/04/03 08:13:28;;;;;;;;;;;;;;;;;;4984458;28;20466;-66
2024/04/03 08:16:04;;;;;;;1.75;0.80;;;;;;;;;;4986503;28;20008;-65
2024/04/03 08:18:32;;;;;;;1.35;0.88;;;;;;;;;;4987224;28;20532;-65
2024/04/03 08:21:03;;;;;;;1.30;0.85;;;;;;;;;;4969423;28;20136;-65
2024/04/03 08:23:30;;;;;;;3.80;2.05;;;;;;;;;;4982832;28;20065;-65
2024/04/03 08:26:05;;;;;;;1.63;0.85;;;;;;;;;;4987118;28;20030;-65
2024/04/03 08:28:38;;;;;;;2.03;0.90;;;;;;;;;;4987069;28;20510;-64
2024/04/03 08:31:15;;;;;;;0.98;0.52;;;;;;;;;;4985743;28;20774;-64
2024/04/03 08:33:42;;;;;;;1.77;0.60;;;;;;;;;;4988908;28;20526;-65
2024/04/03 08:36:12;;;;;;;1.95;0.90;;;;;;;;;;4988738;28;20054;-65
2024/04/03 08:38:38;;;;;;;;;;;;;;;;;;4989258;28;20045;-67
2024/04/03 08:41:04;;;;;;;1.20;0.70;;;;;;;;;;4989883;28;19917;-65
2024/04/03 08:43:31;;;;;;;2.83;0.80;;;;;;;;;;4990226;28;20042;-65
2024/04/03 08:45:57;;;;;;;1.98;0.88;;;;;;;;;;4986580;28;20042;-65
2024/04/03 08:48:25;;;;;;;2.70;0.70;;;;;;;;;;4969225;28;20414;-66
2024/04/03 08:50:52;;;;;;;4.05;1.08;;;;;;;;;;4984417;28;20042;-65
2024/04/03 08:53:23;;;;;;;2.97;0.80;;;;;;;;;;4985539;28;20041;-66
2024/04/03 08:55:52;;;;;;;0.70;0.70;;;;;;;;;;4985590;28;20453;-65
2024/04/03 08:58:20;;;;;;;1.73;0.70;;;;;;;;;;4983747;28;20042;-64
2024/04/03 09:00:47;;;;;;;1.67;0.60;;;;;;;;;;4984001;28;20592;-65
2024/04/03 09:03:15;;;;;;;2.80;0.50;;;;;;;;;;4978345;28;20047;-65
2024/04/03 09:05:41;;;;;;;1.15;0.68;;;;;;;;;;4980646;28;20045;-65
2024/04/03 09:08:10;;;;;;;1.33;0.60;;;;;;;;;;4981808;28;21878;-65
2024/04/03 09:10:50;;;;;;;;;;;;;;;;;;;;;
2024/04/03 09:13:16;;;;;;;3.10;0.70;;;;;;;;;;4988690;28;20042;-66
2024/04/03 09:15:43;;;;;;;2.22;0.63;;;;;;;;;;4988304;28;20050;-66
2024/04/03 09:18:10;;;;;;;1.40;0.55;;;;;;;;;;4987050;28;20030;-68
2024/04/03 09:20:40;;;;;;;0.88;0.60;;;;;;;;;;4988213;28;20035;-64
2024/04/03 09:23:08;;;;;;;1.58;0.57;;;;;;;;;;4988345;28;20355;-66
2024/04/03 09:25:36;;;;;;;1.42;0.50;;;;;;;;;;4987889;28;20054;-65
2024/04/03 09:28:05;;;;;;;2.60;0.60;;;;;;;;;;4987939;28;20042;-65
2024/04/03 09:30:36;;;;;;;5.10;0.63;;;;;;;;;;4986531;28;20497;-65
2024/04/03 09:33:04;;;;;;;2.97;0.82;;;;;;;;;;4990601;28;20405;-64
2024/04/03 09:35:34;;;;;;;1.30;0.70;;;;;;;;;;4983850;28;20054;-66
2024/04/03 09:38:01;;;;;;;0.57;0.50;;;;;;;;;;4989993;28;20034;-67
2024/04/03 09:40:29;;;;;;;3.15;0.65;;;;;;;;;;4990368;28;20509;-65
2024/04/03 09:43:05;;;;;;;3.00;0.73;;;;;;;;;;4986931;28;20030;-65
2024/04/03 09:45:32;;;;;;;0.93;0.50;;;;;;;;;;4986444;28;20058;-65
2024/04/03 09:48:06;;;;;;;2.40;0.45;;;;;;;;;;4987158;28;20042;-66
2024/04/03 09:50:42;;;;;;;2.22;0.98;;;;;;;;;;4987193;28;20434;-65
2024/04/03 09:53:14;;;;;;;2.05;0.52;;;;;;;;;;4981652;28;20058;-65
2024/04/03 09:55:43;;;;;;;1.08;0.50;;;;;;;;;;4987232;28;20055;-65
2024/04/03 09:58:13;;;;;;;2.85;0.65;;;;;;;;;;4987695;28;20046;-65
2024/04/03 10:00:49;;;;;;;0.98;0.52;;;;;;;;;;4985420;28;20533;-65
2024/04/03 10:03:28;;;;;;;0.60;0.45;;;;;;;;;;4985011;28;20050;-65
2024/04/03 10:06:04;;;;;;;1.45;0.77;;;;;;;;;;4987528;28;20053;-66
2024/04/03 10:08:35;;;;;;;2.85;0.60;;;;;;;;;;5003167;28;20042;-65
2024/04/03 10:11:08;;;;;;;3.30;0.70;;;;;;;;;;4986666;28;20054;-65
2024/04/03 10:13:36;;;;;;;1.05;0.50;;;;;;;;;;4988484;28;20410;-66
2024/04/03 10:16:04;;;;;;;0.98;0.50;;;;;;;;;;4989924;28;20057;-66
2024/04/03 10:18:49;;;;;;;0.88;0.50;;;;;;;;;;5007756;28;20113;-65
2024/04/03 10:21:15;;;;;;;2.03;0.40;;;;;;;;;;4986829;28;20049;-64
2024/04/03 10:23:45;;;;;;;0.50;0.40;;;;;;;;;;4992602;28;20053;-64
2024/04/03 10:26:12;;;;;;;0.77;0.52;;;;;;;;;;4974511;28;20061;-65
2024/04/03 10:28:41;;;;;;;0.50;0.40;;;;;;;;;;4992206;28;20042;-63
2024/04/03 10:31:17;;;;;;;1.60;0.60;;;;;;;;;;4987900;28;20053;-65
2024/04/03 10:33:45;;;;;;;1.90;0.73;;;;;;;;;;4989027;28;20057;-65
2024/04/03 10:36:11;;;;;;;2.00;0.70;;;;;;;;;;4985271;28;20034;-65
2024/04/03 10:38:37;;;;;;;1.67;1.10;;;;;;;;;;4995014;28;20105;-65
2024/04/03 10:41:05;;;;;;;1.60;0.70;;;;;;;;;;4989547;28;20046;-65
2024/04/03 10:43:31;;;;;;;1.75;0.88;;;;;;;;;;4988059;28;20061;-64
2024/04/03 10:45:57;;;;;;;0.90;0.68;;;;;;;;;;4991562;28;20402;-64
2024/04/03 10:48:24;;;;;;;2.58;0.68;;;;;;;;;;4991628;28;20061;-64
2024/04/03 10:50:50;;;;;;;8.32;0.90;;;;;;;;;;5002849;28;20053;-64
2024/04/03 10:53:17;;;;;;;0.70;0.47;;;;;;;;;;4993756;28;20512;-64
2024/04/03 10:55:45;;;;;;;1.55;0.50;;;;;;;;;;4989754;28;20042;-65
2024/04/03 10:58:11;;;;;;;2.53;1.00;;;;;;;;;;4991144;28;20057;-65
2024/04/03 11:00:39;;;;;;;0.80;0.57;;;;;;;;;;4987279;28;20034;-63
2024/04/03 11:03:09;;;;;;;1.20;0.50;;;;;;;;;;4989104;28;20034;-65
2024/04/03 11:05:36;;;;;;;1.40;0.47;;;;;;;;;;4996056;28;20041;-66
2024/04/03 11:08:03;;;;;;;0.82;0.40;;;;;;;;;;4987046;28;20061;-64
2024/04/03 11:10:30;;;;;;;1.23;0.50;;;;;;;;;;5001916;28;20410;-64
2024/04/03 11:13:03;;;;;;;0.38;0.38;;;;;;;;;;4990449;28;20037;-64
2024/04/03 11:15:29;;;;;;;0.50;0.47;;;;;;;;;;4990038;28;20038;-65
2024/04/03 11:17:56;;;;;;;1.17;0.40;;;;;;;;;;4993668;28;20057;-65
2024/04/03 11:20:25;;;;;;;0.63;0.35;;;;;;;;;;4990151;28;20053;-64
2024/04/03 11:22:55;;;;;;;0.50;0.47;;;;;;;;;;4989261;28;20034;-64
2024/04/03 11:25:22;;;;;;;0.40;0.40;;;;;;;;;;4994164;28;20053;-64
2024/04/03 11:27:49;;;;;;;0.65;0.50;;;;;;;;;;4991597;28;20042;-64
2024/04/03 11:30:15;;;;;;;1.17;0.50;;;;;;;;;;4985962;28;20030;-63
2024/04/03 11:32:42;;;;;;;0.60;0.50;;;;;;;;;;4998522;28;20497;-65
2024/04/03 11:35:08;;;;;;;2.08;0.50;;;;;;;;;;4994823;28;22034;-64
2024/04/03 11:37:35;;;;;;;0.93;0.40;;;;;;;;;;4993281;28;20061;-64
2024/04/03 11:40:05;;;;;;;1.27;0.50;;;;;;;;;;4993921;28;20046;-64
2024/04/03 11:42:34;;;;;;;1.02;0.43;;;;;;;;;;4991817;28;20046;-64
2024/04/03 11:45:00;;;;;;;1.35;0.30;;;;;;;;;;4992640;28;20072;-63
2024/04/03 11:47:26;;;;;;;1.42;0.47;;;;;;;;;;4995524;28;20026;-66
2024/04/03 11:49:53;;;;;;;0.60;0.50;;;;;;;;;;4993193;28;20046;-65
2024/04/03 11:52:19;;;;;;;1.10;0.50;;;;;;;;;;4996169;28;20063;-65
2024/04/03 11:54:45;;;;;;;0.70;0.40;;;;;;;;;;4997501;28;20047;-65
2024/04/03 11:57:11;;;;;;;0.38;0.35;;;;;;;;;;4992875;28;20038;-65
2024/04/03 11:59:37;;;;;;;0.90;0.30;;;;;;;;;;4996722;28;20042;-64
2024/04/03 12:02:04;;;;;;;1.05;0.50;;;;;;;;;;4996929;28;20046;-63
2024/04/03 12:04:31;;;;;;;0.57;0.30;;;;;;;;;;4989696;28;20053;-64
2024/04/03 12:06:58;;;;;;;0.30;0.30;;;;;;;;;;4994757;28;20038;-65
2024/04/03 12:09:25;;;;;;;0.50;0.30;;;;;;;;;;4991922;28;20426;-64
2024/04/03 12:11:51;;;;;;;0.50;0.30;;;;;;;;;;4989180;28;20030;-64
2024/04/03 12:14:17;;;;;;;0.32;0.32;;;;;;;;;;4994605;28;20513;-63
2024/04/03 12:16:44;;;;;;;0.98;0.40;;;;;;;;;;4993337;28;20053;-64
2024/04/03 12:21:54;;;;;;;0.85;0.50;;;;;;;;;;4990340;28;20034;-64
2024/04/03 12:24:20;;;;;;;0.93;0.30;;;;;;;;;;4995181;28;20421;-63
2024/04/03 12:26:46;;;;;;;0.40;0.30;;;;;;;;;;4990706;28;20422;-62
2024/04/03 12:29:16;;;;;;;1.13;0.45;;;;;;;;;;4992360;28;20038;-63
2024/04/03 12:31:50;;;;;;;2.42;0.40;;;;;;;;;;4994379;28;20125;-63
2024/04/03 12:34:17;;;;;;;0.38;0.30;;;;;;;;;;4988692;28;20042;-63
2024/04/03 12:36:43;;;;;;;2.00;0.50;;;;;;;;;;4993439;28;20046;-63
2024/04/03 12:39:09;;;;;;;0.43;0.30;;;;;;;;;;4993627;28;20505;-63
2024/04/03 12:41:36;;;;;;;0.82;0.30;;;;;;;;;;4992992;28;20047;-63
2024/04/03 12:44:02;;;;;;;0.38;0.30;;;;;;;;;;4991319;28;20057;-63
2024/04/03 12:46:28;;;;;;;0.90;0.30;;;;;;;;;;4992139;28;20054;-65
2024/04/03 12:48:55;;;;;;;0.85;0.40;;;;;;;;;;5009282;28;20045;-64
2024/04/03 12:51:21;;;;;;;0.40;0.40;;;;;;;;;;4993945;28;20061;-64
2024/04/03 12:53:47;;;;;;;0.60;0.40;;;;;;;;;;4989811;28;20037;-63
2024/04/03 12:56:13;;;;;;;0.73;0.40;;;;;;;;;;4994000;28;20041;-65
2024/04/03 12:58:40;;;;;;;1.38;0.50;;;;;;;;;;4989064;28;20046;-64
2024/04/03 13:01:07;;;;;;;0.68;0.40;;;;;;;;;;4994209;28;20041;-66
2024/04/03 13:03:34;;;;;;;0.75;0.40;;;;;;;;;;4993931;28;20057;-66
2024/04/03 13:06:00;;;;;;;1.48;0.40;;;;;;;;;;4989807;28;20026;-66
2024/04/03 13:08:27;;;;;;;0.60;0.40;;;;;;;;;;4991257;28;20045;-66
2024/04/03 13:10:53;;;;;;;0.60;0.30;;;;;;;;;;4989378;28;20034;-67
2024/04/03 13:13:19;;;;;;;2.67;0.40;;;;;;;;;;4991582;28;20038;-66
2024/04/03 13:15:45;;;;;;;1.38;0.32;;;;;;;;;;4991780;28;20050;-66
2024/04/03 13:18:13;;;;;;;1.10;0.50;;;;;;;;;;4995242;28;20042;-66
2024/04/03 13:20:39;;;;;;;0.40;0.30;;;;;;;;;;4988818;28;20053;-66
2024/04/03 13:23:05;;;;;;;1.55;0.50;;;;;;;;;;4991869;28;20064;-66
2024/04/03 13:25:32;;;;;;;0.40;0.40;;;;;;;;;;4988493;28;20458;-65
2024/04/03 13:27:58;;;;;;;0.38;0.30;;;;;;;;;;4991302;28;20042;-65
2024/04/03 13:30:24;;;;;;;0.32;0.30;;;;;;;;;;4992673;28;20042;-64
2024/04/03 13:32:51;;;;;;;0.65;0.30;;;;;;;;;;4994112;28;20026;-64
2024/04/03 13:35:18;;;;;;;0.70;0.30;;;;;;;;;;4990411;28;20042;-65
2024/04/03 13:37:46;;;;;;;0.85;0.40;;;;;;;;;;4992029;28;20054;-66
2024/04/03 13:40:12;;;;;;;1.00;0.40;;;;;;;;;;4987649;28;20394;-66
2024/04/03 13:42:39;;;;;;;0.50;0.40;;;;;;;;;;4992904;28;20077;-64
2024/04/03 13:45:06;;;;;;;0.20;0.20;;;;;;;;;;4991519;28;20508;-65
2024/04/03 13:47:32;;;;;;;0.50;0.30;;;;;;;;;;4991757;28;20065;-65
2024/04/03 13:49:58;;;;;;;0.43;0.30;;;;;;;;;;4990242;28;20377;-65
2024/04/03 13:52:25;;;;;;;0.40;0.40;;;;;;;;;;4982957;28;20034;-66
2024/04/03 13:54:51;;;;;;;0.60;0.38;;;;;;;;;;4991164;28;20054;-65
2024/04/03 13:57:19;;;;;;;0.88;0.40;;;;;;;;;;4986127;28;20033;-66
2024/04/03 13:59:47;;;;;;;2.05;0.80;;;;;;;;;;4992263;28;20054;-64
2024/04/03 14:02:14;;;;;;;0.77;0.73;;;;;;;;;;4994138;28;20041;-64
2024/04/03 14:04:41;;;;;;;0.55;0.40;;;;;;;;;;4986030;28;20030;-66
2024/04/03 14:07:07;;;;;;;0.30;0.30;;;;;;;;;;4991161;28;20045;-65
2024/04/03 14:09:33;;;;;;;0.50;0.30;;;;;;;;;;4990553;28;20053;-64
2024/04/03 14:11:59;;;;;;;0.95;0.40;;;;;;;;;;4992634;28;20106;-65
2024/04/03 14:14:26;;;;;;;1.05;0.50;;;;;;;;;;4991800;28;20058;-64
2024/04/03 14:16:53;;;;;;;1.80;0.80;;;;;;;;;;4988908;28;20061;-65
2024/04/03 14:19:20;;;;;;;1.45;0.80;;;;;;;;;;4990623;28;20034;-64
2024/04/03 14:21:46;;;;;;;2.00;1.20;;;;;;;;;;4992529;28;20049;-64
2024/04/03 14:24:12;;;;;;;0.95;0.50;;;;;;;;;;4992715;28;20038;-63
2024/04/03 14:26:38;;;;;;;0.30;0.30;;;;;;;;;;4994967;28;20494;-64
2024/04/03 14:29:04;;;;;;;0.40;0.40;;;;;;;;;;4990821;28;20054;-63
2024/04/03 14:31:30;;;;;;;0.60;0.32;;;;;;;;;;4990429;28;20046;-65
2024/04/03 14:33:56;;;;;;;0.32;0.30;;;;;;;;;;4990424;28;20046;-64
2024/04/03 14:36:22;;;;;;;1.38;0.40;;;;;;;;;;4989234;28;20045;-64
2024/04/03 14:38:48;;;;;;;0.60;0.40;;;;;;;;;;4994733;28;20069;-64
2024/04/03 14:41:15;;;;;;;0.82;0.30;;;;;;;;;;4993033;28;20133;-64
2024/04/03 14:43:41;;;;;;;0.90;0.30;;;;;;;;;;4992242;28;20382;-64
2024/04/03 14:46:09;;;;;;;1.08;0.60;;;;;;;;;;4983613;28;20159;-65
2024/04/03 14:48:38;;;;;;;1.08;0.45;;;;;;;;;;4989665;28;20393;-65
2024/04/03 14:51:05;;;;;;;2.05;0.57;;;;;;;;;;4987743;28;20096;-65
2024/04/03 14:53:32;;;;;;;1.17;0.90;;;;;;;;;;4994212;28;20065;-65